Time;durP1;ratioP1;P1;durP2;ratioP2;P2;SDS_P1;SDS_P2;PMS_P1;PMS_P2;Temp;Humidity;BMP_temperature;BMP_pressure;BME280_temperature;BME280_humidity;BME280_pressure;Samples;Min_cycle;Max_cycle;Signal;HPM_P1;HPM_P2
2023/11/14 00:01:07;;;;;;;9.10;2.30;;;;;;;15.85;55.54;96778.16;5005920;28;21022;-72
2023/11/14 00:03:32;;;;;;;6.90;2.00;;;;;;;15.85;55.29;96784.25;5029020;28;20569;-72
2023/11/14 00:05:58;;;;;;;14.73;2.70;;;;;;;15.85;55.23;96791.38;5029157;28;20271;-70
2023/11/14 00:08:23;;;;;;;10.27;2.13;;;;;;;15.83;55.13;96780.94;5021062;28;20686;-72
2023/11/14 00:10:49;;;;;;;10.80;1.90;;;;;;;15.84;54.61;96789.69;5028035;28;20271;-74
2023/11/14 00:13:14;;;;;;;10.90;2.20;;;;;;;15.70;54.71;96787.00;5027563;28;20199;-74
2023/11/14 00:15:40;;;;;;;8.97;1.77;;;;;;;15.73;55.00;96773.41;5011205;28;20207;-71
2023/11/14 00:18:07;;;;;;;8.30;2.47;;;;;;;15.72;54.96;96776.22;5012953;28;20207;-72
2023/11/14 00:20:33;;;;;;;6.70;2.30;;;;;;;15.74;55.21;96776.84;5023401;28;20192;-72
2023/11/14 00:22:58;;;;;;;16.03;2.23;;;;;;;15.74;55.16;96782.97;5035865;28;20537;-71
2023/11/14 00:25:24;;;;;;;8.27;1.93;;;;;;;15.74;55.08;96785.59;5028392;28;20191;-71
2023/11/14 00:27:50;;;;;;;12.93;1.90;;;;;;;15.68;55.35;96799.56;5009792;28;20210;-72
2023/11/14 00:30:16;;;;;;;10.63;1.90;;;;;;;15.74;55.43;96784.75;5024879;28;20190;-71
2023/11/14 00:32:41;;;;;;;7.40;2.23;;;;;;;15.76;55.42;96775.63;5023806;28;20930;-71
2023/11/14 00:35:07;;;;;;;9.97;1.97;;;;;;;15.80;55.70;96771.59;5027382;28;20187;-72
2023/11/14 00:37:33;;;;;;;10.63;2.23;;;;;;;15.79;55.81;96785.81;5027784;28;20697;-72
2023/11/14 00:39:58;;;;;;;8.77;2.23;;;;;;;15.75;56.30;96792.50;5005142;28;20215;-72
2023/11/14 00:42:24;;;;;;;11.80;2.23;;;;;;;15.77;56.43;96787.81;5028240;28;20245;-73
2023/11/14 00:44:49;;;;;;;7.30;2.60;;;;;;;15.78;56.65;96799.22;5007666;28;20239;-74
2023/11/14 00:47:15;;;;;;;15.80;2.07;;;;;;;15.79;56.89;96785.00;5019667;28;20184;-72
2023/11/14 00:49:40;;;;;;;7.50;1.87;;;;;;;15.79;57.24;96788.44;5028546;28;20621;-72
2023/11/14 00:52:06;;;;;;;7.57;2.07;;;;;;;15.80;57.57;96795.38;5024929;28;20262;-71
2023/11/14 00:54:32;;;;;;;6.50;2.20;;;;;;;15.81;57.46;96791.72;5010519;28;20266;-71
2023/11/14 00:56:58;;;;;;;9.13;2.30;;;;;;;15.79;57.53;96785.00;5027685;28;20286;-73
2023/11/14 00:59:24;;;;;;;9.70;2.03;;;;;;;15.70;57.85;96797.56;5028524;28;20584;-72
2023/11/14 01:01:49;;;;;;;6.43;1.83;;;;;;;15.68;58.08;96815.41;5027945;28;20202;-72
2023/11/14 01:04:17;;;;;;;8.87;2.10;;;;;;;15.74;57.73;96804.09;5027490;28;20191;-71
2023/11/14 01:06:43;;;;;;;6.33;1.90;;;;;;;15.72;58.02;96800.00;5028776;28;20183;-71
2023/11/14 01:09:09;;;;;;;10.13;2.17;;;;;;;15.60;57.48;96805.03;5028709;28;21246;-73
2023/11/14 01:11:35;;;;;;;12.47;2.00;;;;;;;15.63;57.39;96812.53;5027924;28;20443;-74
2023/11/14 01:14:01;;;;;;;13.20;2.40;;;;;;;15.62;57.09;96821.50;5025280;28;20497;-73
2023/11/14 01:16:26;;;;;;;7.20;2.10;;;;;;;15.64;57.24;96808.88;5026162;28;20513;-72
2023/11/14 01:18:54;;;;;;;9.87;1.70;;;;;;;15.66;57.11;96812.16;5023292;28;20817;-74
2023/11/14 01:21:19;;;;;;;6.20;1.70;;;;;;;15.68;57.20;96818.06;5027098;28;20438;-72
2023/11/14 01:23:45;;;;;;;8.43;2.20;;;;;;;15.68;57.08;96828.63;4997434;28;20874;-74
2023/11/14 01:26:11;;;;;;;12.73;2.30;;;;;;;15.68;56.83;96825.19;5028649;28;20187;-74
2023/11/14 01:28:36;;;;;;;10.20;2.07;;;;;;;15.62;56.81;96827.56;5030475;28;20215;-71
2023/11/14 01:31:02;;;;;;;8.23;2.00;;;;;;;15.68;56.79;96825.97;5009835;28;20191;-71
2023/11/14 01:33:27;;;;;;;8.53;2.53;;;;;;;15.71;56.77;96838.81;5023299;28;20226;-74
2023/11/14 01:35:53;;;;;;;8.00;1.90;;;;;;;15.69;56.59;96848.75;5029555;28;20242;-71
2023/11/14 01:38:18;;;;;;;8.13;1.87;;;;;;;15.69;56.61;96847.94;5010262;28;20227;-72
2023/11/14 01:40:50;;;;;;;9.77;2.17;;;;;;;15.62;56.44;96853.19;5025197;28;20200;-73
2023/11/14 01:43:16;;;;;;;8.37;1.93;;;;;;;15.65;56.40;96858.06;5024948;28;20259;-72
2023/11/14 01:45:42;;;;;;;7.70;2.10;;;;;;;15.57;56.15;96845.00;5024740;28;20438;-73
2023/11/14 01:48:08;;;;;;;8.60;2.50;;;;;;;15.56;56.15;96846.03;5033064;28;20772;-72
2023/11/14 01:50:33;;;;;;;15.63;2.37;;;;;;;15.58;56.13;96844.00;5035896;28;20448;-73
2023/11/14 01:53:00;;;;;;;11.57;1.97;;;;;;;15.52;56.05;96851.69;5032076;28;20196;-72
2023/11/14 01:55:25;;;;;;;10.70;2.27;;;;;;;15.51;56.00;96851.88;5003061;28;20200;-71
2023/11/14 01:57:53;;;;;;;5.63;1.83;;;;;;;15.48;55.91;96868.94;5028552;28;20577;-71
2023/11/14 02:00:19;;;;;;;9.97;2.40;;;;;;;15.47;55.85;96861.19;5028145;28;20196;-72
2023/11/14 02:02:45;;;;;;;9.47;1.73;;;;;;;15.43;55.78;96866.03;5037745;28;20851;-72
2023/11/14 02:05:11;;;;;;;13.00;2.53;;;;;;;15.49;55.87;96848.63;5012518;28;20426;-72
2023/11/14 02:07:37;;;;;;;6.33;2.10;;;;;;;15.46;56.07;96839.25;5021029;28;20528;-72
2023/11/14 02:10:04;;;;;;;5.50;1.70;;;;;;;15.46;55.92;96843.72;5012215;28;20188;-73
2023/11/14 02:12:29;;;;;;;8.83;2.00;;;;;;;15.38;56.21;96839.38;5026989;28;20681;-70
2023/11/14 02:14:55;;;;;;;8.93;2.27;;;;;;;15.39;55.98;96843.66;5038490;28;20430;-72
2023/11/14 02:17:20;;;;;;;11.93;2.00;;;;;;;15.42;56.16;96847.75;5034647;28;20200;-71
2023/11/14 02:19:45;;;;;;;9.60;2.27;;;;;;;15.41;56.13;96841.66;5013837;28;20225;-71
2023/11/14 02:22:12;;;;;;;7.53;2.20;;;;;;;15.40;55.96;96858.50;5032230;28;20219;-72
2023/11/14 02:24:48;;;;;;;11.30;2.00;;;;;;;15.38;56.26;96851.78;5027193;28;20223;-74
2023/11/14 02:27:13;;;;;;;13.17;2.30;;;;;;;15.38;56.53;96844.66;5015006;28;20553;-72
2023/11/14 02:29:39;;;;;;;9.20;2.00;;;;;;;15.31;56.54;96868.38;5023678;28;20462;-71
2023/11/14 02:32:05;;;;;;;15.90;2.43;;;;;;;15.19;56.44;96877.81;5016896;28;20600;-72
2023/11/14 02:34:30;;;;;;;8.77;2.00;;;;;;;15.25;56.90;96866.50;5027686;28;20341;-73
2023/11/14 02:36:55;;;;;;;16.07;2.00;;;;;;;15.28;56.58;96868.78;5038091;28;20242;-72
2023/11/14 02:39:22;;;;;;;13.37;2.13;;;;;;;15.26;56.60;96864.66;5029994;28;20269;-71
2023/11/14 02:41:47;;;;;;;7.20;2.10;;;;;;;15.28;56.64;96860.03;5036082;28;20191;-70
2023/11/14 02:44:13;;;;;;;6.13;1.93;;;;;;;15.23;56.55;96859.78;5013133;28;20441;-70
2023/11/14 02:46:38;;;;;;;8.73;1.93;;;;;;;15.26;56.64;96860.22;5021584;28;20188;-72
2023/11/14 02:49:23;;;;;;;12.83;2.30;;;;;;;15.17;56.95;96853.47;5024669;28;20243;-72
2023/11/14 02:51:48;;;;;;;9.33;1.90;;;;;;;15.22;56.95;96839.69;5009889;28;20200;-72
2023/11/14 02:54:13;;;;;;;6.63;2.20;;;;;;;15.23;56.90;96838.69;5024072;28;20488;-71
2023/11/14 02:56:39;;;;;;;12.73;2.40;;;;;;;15.18;57.02;96829.50;5029731;28;20298;-73
2023/11/14 02:59:04;;;;;;;9.20;3.00;;;;;;;15.17;56.97;96832.34;5012659;28;20327;-71
2023/11/14 03:01:30;;;;;;;7.57;1.90;;;;;;;15.14;57.28;96838.00;5029723;28;20199;-70
2023/11/14 03:03:55;;;;;;;17.13;2.47;;;;;;;15.07;57.60;96835.28;5033654;28;20216;-72
2023/11/14 03:06:21;;;;;;;6.70;1.90;;;;;;;15.08;57.79;96847.50;5035244;28;20180;-72
2023/11/14 03:08:46;;;;;;;5.67;1.80;;;;;;;15.03;58.06;96855.97;5032790;28;20370;-70
2023/11/14 03:11:12;;;;;;;10.77;2.33;;;;;;;14.92;58.45;96867.03;5030490;28;20287;-72
2023/11/14 03:13:37;;;;;;;9.50;1.77;;;;;;;14.99;58.35;96875.00;5029663;28;20200;-70
2023/11/14 03:16:03;;;;;;;8.27;2.30;;;;;;;15.05;58.22;96882.16;5029733;28;20250;-70
2023/11/14 03:18:28;;;;;;;7.37;2.20;;;;;;;15.07;58.38;96890.72;5029253;28;20238;-71
2023/11/14 03:20:54;;;;;;;8.27;2.10;;;;;;;15.08;58.46;96884.44;5023335;28;20231;-71
2023/11/14 03:23:19;;;;;;;7.47;2.03;;;;;;;15.05;58.83;96887.44;5023161;28;20195;-71
2023/11/14 03:25:45;;;;;;;9.53;2.10;;;;;;;15.02;59.18;96885.16;5031698;28;20196;-70
2023/11/14 03:28:10;;;;;;;9.70;2.23;;;;;;;15.00;59.36;96900.38;5024449;28;20580;-70
2023/11/14 03:30:36;;;;;;;12.60;2.27;;;;;;;14.88;59.74;96898.22;5027665;28;20274;-72
2023/11/14 03:33:01;;;;;;;10.73;2.50;;;;;;;14.87;59.92;96898.44;5037505;28;20569;-71
2023/11/14 03:35:27;;;;;;;10.30;2.30;;;;;;;14.88;60.04;96898.22;5028429;28;20555;-73
2023/11/14 03:37:52;;;;;;;15.50;2.53;;;;;;;14.77;60.51;96892.66;5034163;28;20627;-71
2023/11/14 03:40:18;;;;;;;7.47;1.70;;;;;;;14.77;60.44;96898.72;5013509;28;20577;-71
2023/11/14 03:42:43;;;;;;;9.17;1.93;;;;;;;14.74;60.75;96912.31;5021200;28;20200;-72
2023/11/14 03:45:09;;;;;;;7.17;1.90;;;;;;;14.72;60.94;96924.84;5030194;28;20418;-72
2023/11/14 03:47:34;;;;;;;8.93;2.37;;;;;;;14.74;60.91;96925.50;5019389;28;20207;-72
2023/11/14 03:50:02;;;;;;;10.90;2.50;;;;;;;14.69;60.91;96922.59;5020243;28;20197;-73
2023/11/14 03:52:28;;;;;;;7.03;2.20;;;;;;;14.66;61.30;96929.03;5028733;28;20195;-71
2023/11/14 03:54:53;;;;;;;6.40;1.73;;;;;;;14.67;61.15;96941.25;5026735;28;20533;-71
2023/11/14 03:57:19;;;;;;;6.43;1.90;;;;;;;14.63;61.05;96932.03;4997810;28;20764;-72
2023/11/14 03:59:45;;;;;;;7.47;1.97;;;;;;;14.63;61.12;96934.66;5032413;28;20207;-70
2023/11/14 04:02:10;;;;;;;10.07;1.73;;;;;;;14.73;60.92;96939.69;5028817;28;20473;-70
2023/11/14 04:04:37;;;;;;;8.77;1.83;;;;;;;14.71;60.89;96946.97;5028317;28;20724;-71
2023/11/14 04:07:03;;;;;;;7.40;1.70;;;;;;;14.72;61.00;96944.13;5011098;28;20250;-72
2023/11/14 04:09:28;;;;;;;17.13;2.13;;;;;;;14.76;61.15;96939.28;5028312;28;20512;-71
2023/11/14 04:11:54;;;;;;;10.73;1.97;;;;;;;14.76;61.03;96918.19;5021129;28;20192;-73
2023/11/14 04:14:20;;;;;;;17.93;2.20;;;;;;;14.77;60.82;96930.38;5016104;28;20207;-70
2023/11/14 04:16:45;;;;;;;8.50;2.20;;;;;;;14.72;60.89;96943.31;5019789;28;20591;-72
2023/11/14 04:19:10;;;;;;;9.90;2.20;;;;;;;14.57;61.06;96938.84;5030382;28;20217;-70
2023/11/14 04:21:36;;;;;;;5.63;2.10;;;;;;;14.59;61.44;96954.47;5035413;28;20282;-73
2023/11/14 04:24:01;;;;;;;6.03;2.10;;;;;;;14.65;61.24;96952.94;5028037;28;20192;-71
2023/11/14 04:26:29;;;;;;;9.73;1.90;;;;;;;14.67;60.99;96950.94;5019165;28;20188;-72
2023/11/14 04:28:55;;;;;;;7.73;1.97;;;;;;;14.69;60.57;96943.69;5019257;28;20215;-70
2023/11/14 04:31:20;;;;;;;5.23;1.97;;;;;;;14.71;60.50;96941.69;5025950;28;20495;-71
2023/11/14 04:33:46;;;;;;;8.20;2.00;;;;;;;14.72;60.37;96924.84;5026944;28;20196;-72
2023/11/14 04:36:11;;;;;;;9.80;1.70;;;;;;;14.73;60.37;96929.94;5018909;28;20207;-70
2023/11/14 04:38:36;;;;;;;5.63;2.37;;;;;;;14.74;60.51;96936.03;5025921;28;20824;-71
2023/11/14 04:41:03;;;;;;;5.67;1.80;;;;;;;14.67;60.38;96935.09;5018441;28;20187;-71
2023/11/14 04:43:28;;;;;;;4.23;1.80;;;;;;;14.71;60.52;96941.69;5027195;28;20195;-71
2023/11/14 04:45:54;;;;;;;13.27;1.90;;;;;;;14.70;60.29;96947.97;5024835;28;21078;-72
2023/11/14 04:48:19;;;;;;;7.47;2.00;;;;;;;14.71;60.31;96936.41;5025695;28;20215;-72
2023/11/14 04:50:44;;;;;;;3.60;1.63;;;;;;;14.72;60.26;96946.75;5020486;28;20795;-73
2023/11/14 04:53:10;;;;;;;5.30;1.80;;;;;;;14.75;60.26;96948.22;5027079;28;20705;-73
2023/11/14 04:55:36;;;;;;;5.00;1.70;;;;;;;14.73;60.17;96952.88;5026393;28;20191;-70
2023/11/14 04:58:02;;;;;;;6.07;2.00;;;;;;;14.68;60.29;96949.97;5027260;28;20266;-71
2023/11/14 05:00:28;;;;;;;8.60;1.90;;;;;;;14.64;60.39;96936.31;5027187;28;20627;-71
2023/11/14 05:02:54;;;;;;;4.63;1.70;;;;;;;14.55;60.73;96943.50;5023855;28;20448;-73
2023/11/14 05:05:19;;;;;;;3.70;1.60;;;;;;;14.51;60.78;96954.59;5022787;28;20460;-71
2023/11/14 05:07:46;;;;;;;7.77;1.73;;;;;;;14.55;60.84;96958.50;5026755;28;20218;-72
2023/11/14 05:10:13;;;;;;;9.77;2.07;;;;;;;14.51;60.68;96979.13;5022760;28;20207;-72
2023/11/14 05:12:39;;;;;;;8.10;1.77;;;;;;;14.53;60.68;96971.84;5025066;28;20450;-71
2023/11/14 05:15:07;;;;;;;6.00;1.80;;;;;;;14.61;60.48;96981.50;5027048;28;20434;-71
2023/11/14 05:17:32;;;;;;;9.53;1.90;;;;;;;14.66;60.23;96980.94;5008539;28;20223;-71
2023/11/14 05:19:59;;;;;;;4.67;2.00;;;;;;;14.65;59.92;96977.50;5026283;28;20435;-70
2023/11/14 05:22:25;;;;;;;5.93;2.00;;;;;;;14.67;59.91;96972.88;5027465;28;20195;-72
2023/11/14 05:24:50;;;;;;;4.20;1.53;;;;;;;14.70;59.60;96976.97;5006374;28;20514;-72
2023/11/14 05:27:16;;;;;;;6.57;1.83;;;;;;;14.59;59.37;96959.75;5009344;28;20195;-70
2023/11/14 05:29:41;;;;;;;7.13;2.40;;;;;;;14.68;59.11;96963.94;5031285;28;20198;-71
2023/11/14 05:32:09;;;;;;;3.77;1.50;;;;;;;14.72;58.94;96964.44;5008962;28;20238;-72
2023/11/14 05:34:34;;;;;;;7.23;1.70;;;;;;;14.70;58.45;96963.78;5026684;28;20291;-71
2023/11/14 05:37:00;;;;;;;8.20;1.80;;;;;;;14.62;58.06;96984.97;5008133;28;20972;-72
2023/11/14 05:39:25;;;;;;;6.87;1.90;;;;;;;14.65;58.05;96990.69;5022786;28;20267;-71
2023/11/14 05:41:50;;;;;;;4.07;1.50;;;;;;;14.71;57.67;96983.88;5025651;28;20219;-70
2023/11/14 05:44:16;;;;;;;6.50;1.97;;;;;;;14.68;57.03;96982.41;5012246;28;20199;-72
2023/11/14 05:46:42;;;;;;;7.30;2.00;;;;;;;14.70;57.09;96988.31;5025216;28;20180;-72
2023/11/14 05:49:07;;;;;;;4.40;1.67;;;;;;;14.74;56.92;96988.81;5030027;28;20219;-72
2023/11/14 05:51:33;;;;;;;8.27;1.63;;;;;;;14.72;56.48;96988.16;5029923;28;20184;-72
2023/11/14 05:53:59;;;;;;;6.33;1.70;;;;;;;14.73;56.33;96981.88;4986479;28;20814;-71
2023/11/14 05:56:24;;;;;;;7.30;1.60;;;;;;;14.74;56.30;96979.06;5013226;28;20894;-71
2023/11/14 05:58:50;;;;;;;7.00;1.77;;;;;;;14.72;56.05;96985.53;5023724;28;20458;-71
2023/11/14 06:01:15;;;;;;;7.07;1.90;;;;;;;14.72;55.61;96982.88;5025318;28;20731;-71
2023/11/14 06:03:40;;;;;;;8.63;1.97;;;;;;;14.73;55.79;96987.16;5028739;28;20712;-71
2023/11/14 06:06:06;;;;;;;6.53;1.70;;;;;;;14.71;55.69;96989.97;5000477;28;20195;-70
2023/11/14 06:08:32;;;;;;;19.33;1.90;;;;;;;14.72;56.00;97004.00;5030593;28;20257;-71
2023/11/14 06:10:57;;;;;;;2.93;1.83;;;;;;;14.73;55.73;96990.59;5029526;28;20192;-72
2023/11/14 06:13:23;;;;;;;5.23;1.83;;;;;;;14.70;55.60;96990.16;5025826;28;20196;-70
2023/11/14 06:15:48;;;;;;;4.50;1.80;;;;;;;14.70;55.73;96979.59;5023803;28;20777;-72
2023/11/14 06:18:14;;;;;;;14.37;2.10;;;;;;;14.68;55.25;96984.25;5030594;28;20732;-71
2023/11/14 06:20:40;;;;;;;3.97;1.70;;;;;;;14.70;55.25;96971.69;5037651;28;20196;-72
2023/11/14 06:23:05;;;;;;;5.43;1.60;;;;;;;14.69;55.32;96981.41;5017405;28;20208;-69
2023/11/14 06:25:31;;;;;;;4.43;1.47;;;;;;;14.63;55.29;96970.75;5031493;28;20427;-71
2023/11/14 06:27:57;;;;;;;10.60;1.80;;;;;;;14.68;55.33;96968.41;5020018;28;20231;-72
2023/11/14 06:30:22;;;;;;;7.70;1.50;;;;;;;14.64;55.51;96982.94;5030747;28;20192;-72
2023/11/14 06:32:48;;;;;;;5.20;1.60;;;;;;;14.62;55.23;96988.41;5029829;28;20245;-71
2023/11/14 06:35:13;;;;;;;14.83;1.63;;;;;;;14.62;55.39;96984.97;5012827;28;20275;-72
2023/11/14 06:37:38;;;;;;;5.83;1.97;;;;;;;14.63;55.37;96976.84;5038828;28;20215;-71
2023/11/14 06:40:04;;;;;;;7.10;1.87;;;;;;;14.61;55.29;96988.59;5030234;28;20657;-72
2023/11/14 06:42:30;;;;;;;7.50;2.13;;;;;;;14.59;55.46;96980.84;5030871;28;20191;-72
2023/11/14 06:44:55;;;;;;;9.53;1.93;;;;;;;14.58;55.54;96993.22;5034073;28;20480;-72
2023/11/14 06:47:21;;;;;;;7.53;2.00;;;;;;;14.62;55.70;97000.78;5029936;28;20292;-71
2023/11/14 06:49:46;;;;;;;4.40;1.43;;;;;;;14.60;55.85;97003.59;5022033;28;20187;-70
2023/11/14 06:52:11;;;;;;;5.00;1.70;;;;;;;14.59;55.98;97002.78;5026993;28;20743;-70
2023/11/14 06:54:37;;;;;;;3.50;1.50;;;;;;;14.56;56.20;97008.41;5027451;28;20598;-72
2023/11/14 06:57:05;;;;;;;4.00;1.47;;;;;;;14.57;56.18;97012.69;5027520;28;20212;-71
2023/11/14 06:59:31;;;;;;;2.90;1.53;;;;;;;14.59;56.12;97002.78;5030490;28;20207;-71
2023/11/14 07:01:56;;;;;;;6.50;1.90;;;;;;;14.62;56.11;97027.16;5019536;28;20438;-72
2023/11/14 07:04:22;;;;;;;7.80;1.60;;;;;;;14.58;56.38;97021.41;5032331;28;20215;-71
2023/11/14 07:06:47;;;;;;;4.00;1.40;;;;;;;14.60;56.42;97014.13;5025718;28;20567;-71
2023/11/14 07:09:15;;;;;;;2.87;1.37;;;;;;;14.63;56.43;97015.59;5030658;28;20266;-72
2023/11/14 07:11:41;;;;;;;6.60;1.60;;;;;;;14.63;56.77;97026.13;5034743;28;20205;-71
2023/11/14 07:14:07;;;;;;;6.30;1.70;;;;;;;14.50;56.96;97051.31;5025107;28;20427;-72
2023/11/14 07:16:32;;;;;;;3.80;1.83;;;;;;;14.55;56.83;97061.34;5027175;28;20480;-72
2023/11/14 07:18:58;;;;;;;3.60;1.33;;;;;;;14.58;56.51;97067.06;5028605;28;20266;-71
2023/11/14 07:21:23;;;;;;;9.37;2.20;;;;;;;14.59;56.66;97070.50;5028013;28;20195;-72
2023/11/14 07:23:49;;;;;;;5.30;1.43;;;;;;;14.58;56.61;97074.97;5018929;28;20680;-72
2023/11/14 07:26:14;;;;;;;5.63;1.30;;;;;;;14.56;56.57;97066.44;5028019;28;20192;-71
2023/11/14 07:28:41;;;;;;;3.40;1.20;;;;;;;14.58;56.31;97047.78;5028374;28;20298;-72
2023/11/14 07:31:06;;;;;;;4.17;1.50;;;;;;;14.61;56.30;97038.72;5029552;28;20192;-74
2023/11/14 07:33:32;;;;;;;3.37;1.30;;;;;;;14.65;56.38;97030.25;5031169;28;20500;-75
2023/11/14 07:35:58;;;;;;;7.23;1.40;;;;;;;14.65;56.38;97021.50;5027284;28;20799;-74
2023/11/14 07:38:23;;;;;;;4.70;1.60;;;;;;;14.68;56.10;97029.09;5028935;28;20261;-74
2023/11/14 07:40:49;;;;;;;2.77;1.23;;;;;;;14.79;56.04;97054.19;5028851;28;20466;-75
2023/11/14 07:43:15;;;;;;;2.90;1.40;;;;;;;14.90;55.77;97041.34;5029381;28;20279;-74
2023/11/14 07:45:40;;;;;;;3.03;1.50;;;;;;;14.88;55.74;97053.09;5005350;28;20328;-73
2023/11/14 07:48:07;;;;;;;2.77;1.40;;;;;;;14.87;55.57;97056.72;5019303;28;20284;-73
2023/11/14 07:50:33;;;;;;;4.60;1.33;;;;;;;14.92;55.54;97058.81;5030628;28;20215;-73
2023/11/14 07:52:58;;;;;;;6.07;1.37;;;;;;;14.90;55.40;97073.00;5029135;28;20466;-71
2023/11/14 07:55:24;;;;;;;5.93;1.30;;;;;;;14.87;55.27;97076.00;5029172;28;20274;-71
2023/11/14 07:57:50;;;;;;;4.27;1.00;;;;;;;14.86;55.08;97069.13;5028942;28;20273;-70
2023/11/14 08:00:16;;;;;;;2.33;1.33;;;;;;;14.85;54.98;97061.34;5024193;28;20203;-71
2023/11/14 08:02:42;;;;;;;2.60;1.10;;;;;;;14.76;54.90;97060.63;5029451;28;20188;-70
2023/11/14 08:05:08;;;;;;;4.53;1.30;;;;;;;14.81;54.84;97068.00;5018380;28;20435;-70
2023/11/14 08:07:34;;;;;;;6.03;1.43;;;;;;;14.81;55.03;97071.47;5026384;28;20973;-71
2023/11/14 08:10:00;;;;;;;3.53;1.30;;;;;;;14.71;54.74;97065.66;5029914;28;20438;-72
2023/11/14 08:12:25;;;;;;;2.50;1.50;;;;;;;14.80;54.74;97063.75;5027325;28;20517;-72
2023/11/14 08:14:51;;;;;;;9.40;4.17;;;;;;;14.90;54.75;97082.75;5032790;28;20286;-72
2023/11/14 08:17:17;;;;;;;5.97;1.47;;;;;;;14.85;54.62;97085.94;5028121;28;20211;-71
2023/11/14 08:19:46;;;;;;;2.50;1.20;;;;;;;14.84;54.56;97084.31;5031127;28;20211;-71
2023/11/14 08:22:12;;;;;;;8.00;1.50;;;;;;;14.89;54.60;97065.28;5003621;28;20506;-73
2023/11/14 08:24:38;;;;;;;1.47;0.90;;;;;;;14.89;54.74;97097.75;5028949;28;20522;-72
2023/11/14 08:27:05;;;;;;;6.90;1.30;;;;;;;14.94;54.73;97120.13;5021070;28;20196;-72
2023/11/14 08:29:31;;;;;;;5.50;1.13;;;;;;;14.95;54.60;97116.50;5032390;28;20449;-72
2023/11/14 08:31:57;;;;;;;4.60;1.67;;;;;;;14.93;54.64;97124.59;5031312;28;20437;-73
2023/11/14 08:34:23;;;;;;;3.40;1.37;;;;;;;14.98;54.90;97100.31;5032901;28;20423;-72
2023/11/14 08:36:48;;;;;;;15.13;1.27;;;;;;;14.93;55.40;97102.66;5020950;28;20489;-74
2023/11/14 08:39:14;;;;;;;4.00;1.47;;;;;;;14.90;55.28;97099.38;5026817;28;20220;-72
2023/11/14 08:41:42;;;;;;;2.60;1.23;;;;;;;14.89;55.67;97091.66;5023060;28;20222;-73
2023/11/14 08:44:08;;;;;;;4.50;1.50;;;;;;;14.93;55.56;97086.84;5020169;28;20287;-72
2023/11/14 08:46:34;;;;;;;2.90;1.30;;;;;;;14.89;55.81;97081.91;5028278;28;20430;-72
2023/11/14 08:49:06;;;;;;;4.23;1.20;;;;;;;14.86;55.95;97099.94;5002775;28;20216;-72
2023/11/14 08:51:33;;;;;;;2.87;1.07;;;;;;;14.77;56.41;97091.28;5030340;28;20511;-71
2023/11/14 08:53:58;;;;;;;2.93;1.40;;;;;;;14.87;56.52;97076.00;5015455;28;20454;-70
2023/11/14 08:56:24;;;;;;;2.07;1.20;;;;;;;14.83;56.56;97072.09;5027666;28;20458;-72
2023/11/14 08:58:49;;;;;;;4.83;1.30;;;;;;;14.80;56.45;97077.75;5009627;28;20846;-71
2023/11/14 09:01:15;;;;;;;9.80;1.30;;;;;;;14.85;56.54;97074.56;5019344;28;20195;-71
2023/11/14 09:03:41;;;;;;;4.10;1.17;;;;;;;14.84;56.59;97084.31;5028130;28;20202;-71
2023/11/14 09:06:07;;;;;;;2.30;1.00;;;;;;;14.68;56.74;97092.38;5020890;28;20570;-72
2023/11/14 09:08:34;;;;;;;2.00;0.97;;;;;;;14.75;56.59;97101.19;5019940;28;21007;-71
2023/11/14 09:10:59;;;;;;;2.77;1.10;;;;;;;14.69;56.75;97088.75;5036793;28;20460;-71
2023/11/14 09:13:25;;;;;;;7.03;1.40;;;;;;;14.77;56.66;97109.75;4994700;28;20431;-72
2023/11/14 09:15:50;;;;;;;3.00;1.00;;;;;;;14.77;56.48;97107.13;5028528;28;20266;-73
2023/11/14 09:18:16;;;;;;;4.00;1.20;;;;;;;14.68;56.30;97095.81;5026500;28;20302;-72
2023/11/14 09:20:42;;;;;;;7.53;1.10;;;;;;;14.70;55.87;97077.19;5025869;28;20630;-72
2023/11/14 09:23:08;;;;;;;3.30;0.83;;;;;;;14.65;56.23;97048.69;5004215;28;20257;-74
2023/11/14 09:25:33;;;;;;;6.70;1.37;;;;;;;14.54;56.48;97036.78;5024433;28;20435;-75
2023/11/14 09:27:59;;;;;;;2.67;1.20;;;;;;;14.61;55.93;97030.78;5030658;28;20211;-74
2023/11/14 09:30:25;;;;;;;2.33;0.97;;;;;;;14.61;55.66;97057.16;5028083;28;20199;-74
2023/11/14 09:32:50;;;;;;;6.57;1.30;;;;;;;14.63;55.42;97060.41;5028452;28;20422;-74
2023/11/14 09:35:15;;;;;;;5.10;1.23;;;;;;;14.75;55.37;97064.25;5010113;28;20721;-73
2023/11/14 09:37:41;;;;;;;3.93;1.00;;;;;;;14.79;54.79;97057.63;5025213;28;20222;-75
2023/11/14 09:40:08;;;;;;;5.57;1.20;;;;;;;14.82;54.64;97064.34;5026274;28;20191;-75
2023/11/14 09:42:37;;;;;;;3.80;1.17;;;;;;;14.77;54.53;97085.22;5020234;28;20187;-75
2023/11/14 09:45:04;;;;;;;3.93;0.90;;;;;;;14.79;54.56;97096.41;5023766;28;20525;-74
2023/11/14 09:47:30;;;;;;;4.30;1.17;;;;;;;14.80;54.31;97092.75;5002626;28;20531;-73
2023/11/14 09:49:56;;;;;;;4.60;1.47;;;;;;;14.83;54.25;97102.94;5022124;28;20516;-74
2023/11/14 09:52:21;;;;;;;2.90;1.20;;;;;;;14.77;54.25;97083.38;5026942;28;20195;-74
2023/11/14 09:54:47;;;;;;;2.13;0.93;;;;;;;14.77;53.93;97078.09;5011950;28;20192;-74
2023/11/14 09:57:14;;;;;;;1.47;0.80;;;;;;;14.69;53.99;97072.91;5027921;28;20290;-74
2023/11/14 09:59:41;;;;;;;2.40;1.40;;;;;;;14.76;53.79;97063.25;5034524;28;20599;-74
2023/11/14 10:02:07;;;;;;;8.93;1.70;;;;;;;14.76;53.91;97047.44;5012166;28;20525;-73
2023/11/14 10:04:32;;;;;;;8.07;1.20;;;;;;;14.71;53.58;97069.09;5033677;28;20541;-73
2023/11/14 10:06:58;;;;;;;9.13;1.30;;;;;;;14.79;53.71;97072.66;5016233;28;20176;-74
2023/11/14 10:09:25;;;;;;;4.43;1.30;;;;;;;14.62;53.49;97083.34;5018416;28;20230;-74
2023/11/14 10:11:52;;;;;;;2.83;1.10;;;;;;;14.75;53.47;97072.19;5034410;28;20773;-74
2023/11/14 10:14:20;;;;;;;2.33;1.30;;;;;;;14.76;53.32;97065.91;5012551;28;20461;-74
2023/11/14 10:16:56;;;;;;;5.20;1.37;;;;;;;14.69;53.31;97065.00;5018722;28;20497;-73
2023/11/14 10:19:22;;;;;;;2.50;1.00;;;;;;;14.61;53.23;97081.72;5037926;28;20452;-74
2023/11/14 10:21:47;;;;;;;2.50;1.00;;;;;;;14.76;53.11;97080.94;5044428;28;20912;-74
2023/11/14 10:24:14;;;;;;;1.90;1.07;;;;;;;14.78;53.05;97060.47;5039535;28;20271;-74
2023/11/14 10:26:52;;;;;;;5.67;1.20;;;;;;;14.74;53.05;97060.81;5039101;28;20179;-73
2023/11/14 10:29:18;;;;;;;2.17;0.90;;;;;;;14.76;53.08;97049.28;5036726;28;20488;-74
2023/11/14 10:31:44;;;;;;;2.10;0.90;;;;;;;14.72;53.32;97049.63;5043233;28;20450;-74
2023/11/14 10:34:27;;;;;;;3.07;1.23;;;;;;;14.67;53.09;97052.00;5036093;28;20435;-74
2023/11/14 10:36:56;;;;;;;3.37;1.00;;;;;;;14.64;53.35;97030.41;5040284;28;20226;-74
2023/11/14 10:39:23;;;;;;;3.27;1.43;;;;;;;14.67;53.37;97036.19;5032752;28;20481;-73
2023/11/14 10:41:49;;;;;;;3.70;1.00;;;;;;;14.65;53.15;97024.13;5028035;28;20936;-74
2023/11/14 10:44:15;;;;;;;21.73;1.93;;;;;;;14.68;53.53;97027.25;5014729;28;20434;-72
2023/11/14 10:46:54;;;;;;;6.20;1.40;;;;;;;14.59;53.58;97054.69;5031874;28;20425;-74
2023/11/14 10:49:22;;;;;;;3.53;1.50;;;;;;;14.72;53.65;97048.81;5012964;28;20454;-73
2023/11/14 10:51:48;;;;;;;2.40;1.07;;;;;;;14.65;53.80;97037.31;5031914;28;20426;-74
2023/11/14 10:54:14;;;;;;;1.87;1.10;;;;;;;14.57;53.75;97038.22;5034331;28;20437;-74
2023/11/14 10:56:40;;;;;;;13.23;2.00;;;;;;;14.64;54.10;97040.97;5030951;28;20469;-72
2023/11/14 10:59:10;;;;;;;8.30;1.40;;;;;;;14.77;53.51;97022.69;5030563;28;20484;-74
2023/11/14 11:01:36;;;;;;;5.37;0.90;;;;;;;14.85;53.52;97021.78;5030474;28;20317;-73
2023/11/14 11:04:03;;;;;;;3.37;1.30;;;;;;;14.87;53.37;97012.69;5035108;28;20964;-74
2023/11/14 11:06:31;;;;;;;5.03;1.47;;;;;;;14.97;53.47;97019.50;5031177;28;20601;-73
2023/11/14 11:08:57;;;;;;;2.60;1.10;;;;;;;14.89;53.51;97008.03;5029466;28;20798;-74
2023/11/14 11:11:28;;;;;;;4.80;1.43;;;;;;;14.87;53.74;97006.59;5019787;28;20467;-74
2023/11/14 11:13:55;;;;;;;13.93;1.50;;;;;;;14.85;53.68;97025.25;5016055;28;20807;-75
2023/11/14 11:16:43;;;;;;;5.13;1.43;;;;;;;15.02;53.57;97007.41;5031654;28;20435;-74
2023/11/14 11:19:30;;;;;;;7.30;1.20;;;;;;;14.99;53.58;97001.69;5004403;28;20446;-74
2023/11/14 11:22:00;;;;;;;2.83;1.20;;;;;;;15.06;53.54;96992.00;5028645;28;20952;-74
2023/11/14 11:24:27;;;;;;;4.10;1.20;;;;;;;15.14;53.43;96980.50;5028056;28;20434;-74
2023/11/14 11:27:05;;;;;;;5.63;1.87;;;;;;;15.12;53.48;96978.03;5015914;28;21177;-75